createdAt,value
2023-05-06T00:02:05.935Z,20.90
2023-05-06T00:06:07.334Z,21.12
2023-05-06T00:10:09.293Z,21.30
2023-05-06T00:14:12.445Z,21.16
2023-05-06T00:18:12.679Z,21.45
2023-05-06T00:22:13.057Z,21.17
2023-05-06T00:26:13.656Z,21.28
2023-05-06T00:30:17.296Z,21.16
2023-05-06T00:34:17.542Z,21.17
2023-05-06T00:38:19.760Z,21.25
2023-05-06T00:42:22.756Z,21.18
2023-05-06T00:46:25.795Z,21.32
2023-05-06T00:50:28.468Z,21.25
2023-05-06T00:54:30.045Z,21.10
2023-05-06T00:58:30.827Z,20.99
2023-05-06T01:02:45.861Z,20.99
2023-05-06T01:06:59.188Z,20.87
2023-05-06T01:11:05.263Z,21.02
2023-05-06T01:15:11.933Z,21.21
2023-05-06T01:19:42.017Z,21.23
2023-05-06T01:24:01.097Z,21.17
2023-05-06T01:28:01.438Z,21.20
2023-05-06T01:32:15.309Z,21.23
2023-05-06T01:36:26.168Z,21.18
2023-05-06T01:40:31.746Z,21.18
2023-05-06T01:44:39.421Z,20.94
2023-05-06T01:48:41.955Z,20.79
2023-05-06T01:52:42.436Z,20.82
2023-05-06T01:56:45.472Z,20.86
2023-05-06T02:00:46.241Z,20.86
2023-05-06T02:04:47.020Z,20.92
2023-05-06T02:08:47.377Z,20.95
2023-05-06T02:12:54.848Z,20.79
2023-05-06T02:16:56.367Z,20.77
2023-05-06T02:20:56.670Z,20.77
2023-05-06T02:24:56.926Z,20.96
2023-05-06T02:29:00.646Z,20.79
2023-05-06T02:33:01.145Z,20.88
2023-05-06T02:37:01.655Z,20.86
2023-05-06T02:41:01.979Z,20.62
2023-05-06T02:45:05.239Z,20.59
2023-05-06T02:49:05.920Z,20.19
2023-05-06T02:53:06.114Z,20.01
2023-05-06T02:57:06.523Z,20.54
2023-05-06T03:01:09.521Z,20.46
2023-05-06T03:05:12.105Z,20.32
2023-05-06T03:09:12.688Z,20.20
2023-05-06T03:13:16.250Z,20.22
2023-05-06T03:17:19.457Z,19.58
2023-05-06T03:21:20.278Z,20.07
2023-05-06T03:25:22.737Z,20.19
2023-05-06T03:29:23.410Z,20.17
2023-05-06T03:33:27.326Z,20.06
2023-05-06T03:37:27.824Z,20.14
2023-05-06T03:41:30.327Z,20.40
2023-05-06T03:45:31.123Z,20.16
2023-05-06T03:49:36.528Z,19.98
2023-05-06T03:53:37.348Z,20.37
2023-05-06T03:57:38.495Z,20.17
2023-05-06T04:01:40.151Z,19.87
2023-05-06T04:05:43.396Z,19.69
2023-05-06T04:09:46.125Z,19.90
2023-05-06T04:13:46.531Z,19.77
2023-05-06T04:17:50.644Z,19.37
2023-05-06T04:21:53.977Z,19.97
2023-05-06T04:25:54.977Z,19.59
2023-05-06T04:29:57.855Z,19.77
2023-05-06T04:33:59.322Z,19.72
2023-05-06T04:38:02.527Z,20.00
2023-05-06T04:42:04.412Z,20.34
2023-05-06T04:46:12.154Z,20.51
2023-05-06T04:50:15.537Z,20.49
2023-05-06T04:54:18.743Z,20.32
2023-05-06T04:58:19.886Z,20.80
2023-05-06T05:02:21.405Z,21.02
2023-05-06T05:06:21.790Z,20.71
2023-05-06T05:10:25.104Z,21.10
2023-05-06T05:14:25.868Z,20.72
2023-05-06T05:18:26.391Z,20.76
2023-05-06T05:22:30.905Z,20.71
2023-05-06T05:26:33.845Z,20.39
2023-05-06T05:30:34.224Z,20.50
2023-05-06T05:34:34.975Z,20.70
2023-05-06T05:38:35.819Z,20.36
2023-05-06T05:42:39.868Z,20.59
2023-05-06T05:46:46.867Z,20.96
2023-05-06T05:50:50.888Z,21.29
2023-05-06T05:54:51.942Z,21.32
2023-05-06T05:58:56.118Z,21.73
2023-05-06T06:02:57.638Z,22.19
2023-05-06T06:07:02.119Z,22.00
2023-05-06T06:11:05.998Z,21.34
2023-05-06T06:15:15.080Z,22.05
2023-05-06T06:19:18.212Z,22.43
2023-05-06T06:23:19.219Z,22.50
2023-05-06T06:27:19.553Z,22.11
2023-05-06T06:31:22.796Z,22.20
2023-05-06T06:35:23.786Z,22.22
2023-05-06T06:39:24.816Z,22.51
2023-05-06T06:43:25.192Z,22.50
2023-05-06T06:47:36.578Z,22.10
2023-05-06T06:51:36.827Z,22.20
2023-05-06T06:55:37.830Z,22.42
2023-05-06T06:59:38.214Z,22.99
2023-05-06T07:03:41.153Z,23.48
2023-05-06T07:07:41.326Z,23.20
2023-05-06T07:11:41.557Z,22.56
2023-05-06T07:15:41.897Z,22.37
2023-05-06T07:19:44.840Z,21.94
2023-05-06T07:23:45.137Z,21.98
2023-05-06T07:27:45.438Z,22.00
2023-05-06T07:31:45.924Z,22.65
2023-05-06T07:35:51.826Z,23.16
2023-05-06T07:39:52.158Z,22.52
2023-05-06T07:43:52.515Z,22.63
2023-05-06T07:47:53.114Z,22.42
2023-05-06T07:51:58.422Z,22.33
2023-05-06T07:56:02.495Z,22.47
2023-05-06T08:00:04.527Z,23.39
2023-05-06T08:04:20.046Z,23.54
2023-05-06T08:08:30.485Z,24.14
2023-05-06T08:12:30.958Z,24.75
2023-05-06T08:16:35.849Z,25.00
2023-05-06T08:20:36.520Z,24.24
2023-05-06T08:24:43.801Z,24.39
2023-05-06T08:28:44.577Z,24.57
2023-05-06T08:32:50.956Z,26.02
2023-05-06T08:36:52.279Z,26.18
2023-05-06T08:41:14.948Z,26.22
2023-05-06T08:45:16.030Z,27.23
2023-05-06T08:49:16.515Z,26.89
2023-05-06T08:53:17.296Z,27.19
2023-05-06T08:57:20.951Z,26.94
2023-05-06T09:01:21.372Z,27.43
2023-05-06T09:05:21.914Z,28.24
2023-05-06T09:09:22.190Z,28.15
2023-05-06T09:13:24.960Z,27.07
2023-05-06T09:17:28.303Z,28.25
2023-05-06T09:21:36.319Z,28.21
2023-05-06T09:25:36.709Z,28.77
2023-05-06T09:29:39.527Z,28.22
2023-05-06T09:33:39.950Z,27.87
2023-05-06T09:37:40.206Z,28.41
2023-05-06T09:41:40.673Z,28.91
2023-05-06T09:45:45.151Z,28.85
2023-05-06T09:49:46.005Z,28.16
2023-05-06T09:53:48.281Z,28.26
2023-05-06T09:57:49.583Z,28.14
2023-05-06T10:01:53.945Z,28.14
2023-05-06T10:05:57.425Z,28.98
2023-05-06T10:10:01.285Z,28.36
2023-05-06T10:14:03.317Z,27.50
2023-05-06T10:18:10.371Z,26.94
2023-05-06T10:22:22.497Z,28.76
2023-05-06T10:26:25.735Z,29.35
2023-05-06T10:30:27.794Z,28.50
2023-05-06T10:34:38.556Z,28.73
2023-05-06T10:38:45.089Z,29.20
2023-05-06T10:42:45.588Z,29.68
2023-05-06T10:47:05.833Z,29.76
2023-05-06T10:51:28.764Z,29.82
2023-05-06T10:55:32.587Z,32.32
2023-05-06T10:59:32.983Z,34.21
2023-05-06T11:03:36.111Z,35.32
2023-05-06T11:07:39.461Z,34.95
2023-05-06T11:12:04.078Z,31.93
2023-05-06T11:16:07.881Z,30.82
2023-05-06T11:20:25.606Z,31.48
2023-05-06T11:24:31.127Z,32.75
2023-05-06T11:28:32.579Z,32.09
2023-05-06T11:32:33.338Z,32.53
2023-05-06T11:36:33.739Z,33.01
2023-05-06T11:40:36.821Z,32.98
2023-05-06T11:44:42.316Z,34.12
2023-05-06T11:48:42.630Z,35.24
2023-05-06T11:52:43.137Z,35.77
2023-05-06T11:56:56.408Z,37.25
2023-05-06T12:00:59.039Z,38.14
2023-05-06T12:05:00.100Z,36.88
2023-05-06T12:09:01.655Z,33.52
2023-05-06T12:13:05.167Z,31.08
2023-05-06T12:17:06.190Z,28.41
2023-05-06T12:21:07.604Z,28.68
2023-05-06T12:25:18.003Z,29.19
2023-05-06T12:29:21.386Z,29.63
2023-05-06T12:33:22.126Z,30.07
2023-05-06T12:37:32.029Z,30.18
2023-05-06T12:41:42.254Z,30.85
2023-05-06T12:45:46.564Z,31.02
2023-05-06T12:49:55.021Z,32.80
2023-05-06T12:53:55.442Z,32.88
2023-05-06T12:57:57.881Z,33.91
2023-05-06T13:02:01.354Z,32.53
2023-05-06T13:06:01.777Z,31.91
2023-05-06T13:10:03.360Z,30.98
2023-05-06T13:14:03.999Z,30.79
2023-05-06T13:18:07.969Z,30.59
2023-05-06T13:22:08.656Z,32.44
2023-05-06T13:26:08.994Z,31.95
2023-05-06T13:30:11.787Z,33.33
2023-05-06T13:34:15.054Z,31.52
2023-05-06T13:38:15.238Z,31.42
2023-05-06T13:42:15.676Z,32.26
2023-05-06T13:46:16.438Z,30.94
2023-05-06T13:50:19.659Z,30.82
2023-05-06T13:54:20.089Z,30.48
2023-05-06T13:58:20.393Z,30.33
2023-05-06T14:02:20.711Z,32.01
2023-05-06T14:06:23.653Z,33.86
2023-05-06T14:10:24.877Z,33.47
2023-05-06T14:14:25.162Z,31.95
2023-05-06T14:18:26.570Z,31.97
2023-05-06T14:22:30.900Z,32.08
2023-05-06T14:26:31.134Z,31.74
2023-05-06T14:30:32.793Z,31.80
2023-05-06T14:34:33.632Z,32.24
2023-05-06T14:38:36.558Z,32.01
2023-05-06T14:42:36.995Z,32.03
2023-05-06T14:46:37.196Z,33.04
2023-05-06T14:50:37.911Z,33.43
2023-05-06T14:54:42.794Z,32.55
2023-05-06T14:58:43.193Z,31.63
2023-05-06T15:02:43.565Z,31.16
2023-05-06T15:06:43.821Z,30.38
2023-05-06T15:10:46.788Z,30.28
2023-05-06T15:14:47.113Z,30.38
2023-05-06T15:18:47.993Z,29.79
2023-05-06T15:22:48.247Z,29.91
2023-05-06T15:26:51.132Z,29.95
2023-05-06T15:30:51.677Z,29.98
2023-05-06T15:34:51.853Z,29.90
2023-05-06T15:39:03.544Z,29.69
2023-05-06T15:43:08.633Z,30.24
2023-05-06T15:47:09.287Z,30.39
2023-05-06T15:51:09.880Z,30.47
2023-05-06T15:55:13.467Z,30.07
2023-05-06T15:59:16.747Z,30.20
2023-05-06T16:03:17.038Z,30.00
2023-05-06T16:07:17.476Z,29.27
2023-05-06T16:11:17.967Z,29.85
2023-05-06T16:15:22.702Z,31.29
2023-05-06T16:19:23.273Z,33.06
2023-05-06T16:23:24.253Z,33.48
2023-05-06T16:27:24.623Z,33.78
2023-05-06T16:31:27.517Z,35.40
2023-05-06T16:35:28.142Z,35.81
2023-05-06T16:39:28.543Z,35.04
2023-05-06T16:43:29.485Z,33.99
2023-05-06T16:47:32.462Z,32.79
2023-05-06T16:51:33.589Z,31.40
2023-05-06T16:55:33.965Z,31.00
2023-05-06T16:59:34.427Z,30.30
2023-05-06T17:03:38.021Z,29.63
2023-05-06T17:07:40.156Z,29.46
2023-05-06T17:11:40.536Z,29.42
2023-05-06T17:15:41.051Z,29.88
2023-05-06T17:19:44.055Z,30.03
2023-05-06T17:23:44.453Z,29.49
2023-05-06T17:27:45.109Z,28.82
2023-05-06T17:31:46.075Z,28.39
2023-05-06T17:35:49.088Z,28.40
2023-05-06T17:39:49.782Z,27.93
2023-05-06T17:43:51.328Z,27.55
2023-05-06T17:47:51.755Z,27.19
2023-05-06T17:51:56.158Z,26.73
2023-05-06T17:55:56.608Z,26.35
2023-05-06T17:59:56.999Z,26.06
2023-05-06T18:03:57.662Z,25.94
2023-05-06T18:08:00.767Z,25.71
2023-05-06T18:12:01.241Z,25.39
2023-05-06T18:16:01.543Z,25.67
2023-05-06T18:20:01.927Z,25.37
2023-05-06T18:24:15.244Z,24.88
2023-05-06T18:28:17.328Z,24.67
2023-05-06T18:32:17.715Z,24.27
2023-05-06T18:36:18.445Z,24.09
2023-05-06T18:40:21.754Z,24.00
2023-05-06T18:44:22.148Z,23.98
2023-05-06T18:48:22.478Z,23.86
2023-05-06T18:52:23.050Z,23.51
2023-05-06T18:56:25.905Z,23.57
2023-05-06T19:00:26.460Z,23.48
2023-05-06T19:04:28.542Z,23.52
2023-05-06T19:08:30.099Z,23.36
2023-05-06T19:12:34.616Z,23.11
2023-05-06T19:16:35.335Z,22.91
2023-05-06T19:20:37.452Z,22.72
2023-05-06T19:24:41.096Z,22.73
2023-05-06T19:28:44.475Z,22.55
2023-05-06T19:32:45.246Z,22.29
2023-05-06T19:36:45.812Z,21.78
2023-05-06T19:40:47.097Z,22.10
2023-05-06T19:44:50.796Z,21.87
2023-05-06T19:48:51.174Z,21.80
2023-05-06T19:52:51.572Z,21.23
2023-05-06T19:56:51.982Z,21.45
2023-05-06T20:00:55.019Z,21.26
2023-05-06T20:04:55.361Z,21.32
2023-05-06T20:08:55.755Z,20.98
2023-05-06T20:12:57.768Z,21.00
2023-05-06T20:17:02.688Z,21.26
2023-05-06T20:21:02.988Z,21.18
2023-05-06T20:25:12.506Z,21.28
2023-05-06T20:29:13.029Z,21.30
2023-05-06T20:33:16.185Z,21.48
2023-05-06T20:37:16.458Z,21.52
2023-05-06T20:41:16.786Z,21.39
2023-05-06T20:45:17.193Z,21.56
2023-05-06T20:49:20.080Z,21.58
2023-05-06T20:53:20.475Z,21.77
2023-05-06T20:57:21.125Z,21.69
2023-05-06T21:01:23.000Z,21.83
2023-05-06T21:05:26.207Z,21.89
2023-05-06T21:09:26.904Z,21.93
2023-05-06T21:13:27.441Z,21.90
2023-05-06T21:17:27.979Z,21.81
2023-05-06T21:21:33.539Z,21.89
2023-05-06T21:25:34.053Z,21.83
2023-05-06T21:29:34.345Z,21.73
2023-05-06T21:33:34.703Z,21.59
2023-05-06T21:37:38.441Z,21.33
2023-05-06T21:41:39.144Z,21.67
2023-05-06T21:45:39.578Z,21.44
2023-05-06T21:49:39.898Z,21.30
2023-05-06T21:53:42.697Z,21.16
2023-05-06T21:57:44.517Z,21.02
2023-05-06T22:01:45.743Z,20.98
2023-05-06T22:05:46.079Z,20.81
2023-05-06T22:09:48.954Z,20.46
2023-05-06T22:13:49.246Z,20.46
2023-05-06T22:17:49.494Z,20.52
2023-05-06T22:21:49.754Z,20.23
2023-05-06T22:25:52.679Z,20.16
2023-05-06T22:29:52.838Z,20.27
2023-05-06T22:33:55.721Z,20.40
2023-05-06T22:37:55.963Z,20.20
2023-05-06T22:41:58.826Z,20.17
2023-05-06T22:45:59.027Z,20.27
2023-05-06T22:49:59.299Z,20.17
2023-05-06T22:53:59.472Z,20.08
2023-05-06T22:58:02.261Z,19.86
2023-05-06T23:02:02.481Z,19.69
2023-05-06T23:06:04.132Z,19.80
2023-05-06T23:10:04.401Z,19.80
2023-05-06T23:14:08.470Z,19.86
2023-05-06T23:18:08.889Z,19.73
2023-05-06T23:22:09.228Z,19.87
2023-05-06T23:26:09.797Z,19.88
2023-05-06T23:30:15.116Z,19.99
2023-05-06T23:34:15.342Z,20.00
2023-05-06T23:38:15.805Z,19.95
2023-05-06T23:42:16.138Z,19.79
2023-05-06T23:46:19.091Z,19.61
2023-05-06T23:50:19.540Z,19.51
2023-05-06T23:54:19.787Z,19.31
2023-05-06T23:58:20.130Z,19.01
